Chandler, Oklahoma
Current Conditions -  °F | °C
As of 4:15 PM on Friday 24 Oct 2014 (Local Time) from KCQB Reporting Station
Clear Clear  
Wind Chill: 86°   Ceiling: Unl
Heat Index: 88°   Visibility: 10mi
Dew Point: 66°   Wind: 12mph
Humidity: 51%   Direction: 220°SW
Pressure: 30.03"   Gusts: 16mph
Location:  35.7°N, 96.88°W
Report Text: KCQB 242115Z AUTO 22010G14KT 10SM CLR 30/19 A3003 RMK AO2
Loading
Personal Weather Stations






























Interactive Weather Map
Tropical Storm Tracking
New forecast layout! Learn more

10-Day Weather Forecast

Advertisements
Track Severe Weather on mobile